Time;durP1;ratioP1;P1;durP2;ratioP2;P2;SDS_P1;SDS_P2;PMS_P1;PMS_P2;Temp;Humidity;BMP_temperature;BMP_pressure;BME280_temperature;BME280_humidity;BME280_pressure;Samples;Min_cycle;Max_cycle;Signal;HPM_P1;HPM_P2
2023/09/28 00:01:12;;;;;;;10.02;7.55;;;15.90;99.90;;;;;;4942891;29;20245;-81
2023/09/28 00:03:39;;;;;;;13.02;7.63;;;15.80;99.90;;;;;;4942109;29;20242;-83
2023/09/28 00:06:05;;;;;;;10.68;7.07;;;15.80;99.90;;;;;;4942484;29;20214;-81
2023/09/28 00:08:33;;;;;;;9.38;7.00;;;15.70;99.90;;;;;;4941635;29;20222;-81
2023/09/28 00:10:58;;;;;;;10.70;7.65;;;15.70;99.90;;;;;;4942004;29;20211;-82
2023/09/28 00:13:25;;;;;;;10.65;7.68;;;15.70;99.90;;;;;;4941896;29;20211;-81
2023/09/28 00:15:51;;;;;;;9.93;7.35;;;15.80;99.90;;;;;;4940013;29;20209;-82
2023/09/28 00:18:19;;;;;;;12.30;7.78;;;15.80;99.90;;;;;;4940189;29;20286;-83
2023/09/28 00:20:45;;;;;;;8.00;7.00;;;15.70;99.90;;;;;;4940230;29;20213;-81
2023/09/28 00:23:12;;;;;;;8.73;7.03;;;15.80;99.90;;;;;;4940401;29;20223;-81
2023/09/28 00:25:38;;;;;;;9.02;7.45;;;15.90;99.90;;;;;;4940085;29;20211;-81
2023/09/28 00:28:06;;;;;;;12.40;7.32;;;16.00;99.90;;;;;;4941646;29;20769;-82
2023/09/28 00:30:31;;;;;;;10.43;7.80;;;16.00;99.90;;;;;;4942294;29;20210;-82
2023/09/28 00:32:58;;;;;;;13.65;7.90;;;16.00;99.90;;;;;;4942967;29;20714;-83
2023/09/28 00:35:26;;;;;;;13.38;7.63;;;16.00;99.90;;;;;;4942808;29;20213;-82
2023/09/28 00:37:54;;;;;;;11.82;7.95;;;16.00;99.90;;;;;;4942460;29;20238;-81
2023/09/28 00:40:21;;;;;;;15.25;7.75;;;15.90;99.90;;;;;;4942348;29;20213;-83
2023/09/28 00:42:49;;;;;;;9.85;6.90;;;15.90;99.90;;;;;;4942458;29;20238;-81
2023/09/28 00:45:15;;;;;;;10.85;8.02;;;15.80;99.90;;;;;;4942298;29;20757;-82
2023/09/28 00:47:43;;;;;;;13.00;8.35;;;15.80;99.90;;;;;;4942822;29;20718;-81
2023/09/28 00:50:10;;;;;;;14.75;8.80;;;15.90;99.90;;;;;;4946554;29;20207;-81
2023/09/28 00:52:41;;;;;;;15.68;8.13;;;16.00;99.90;;;;;;4946922;29;20199;-81
2023/09/28 00:55:08;;;;;;;12.93;8.05;;;16.00;99.90;;;;;;4946348;29;20218;-81
2023/09/28 00:57:37;;;;;;;11.88;8.32;;;15.80;99.90;;;;;;4945735;29;20277;-84
2023/09/28 01:00:18;;;;;;;13.40;8.65;;;15.40;99.90;;;;;;4945532;29;20233;-83
2023/09/28 01:02:45;;;;;;;12.95;9.38;;;15.30;99.90;;;;;;4945251;29;20884;-82
2023/09/28 01:05:13;;;;;;;18.30;10.32;;;15.20;99.90;;;;;;4944797;29;20221;-81
2023/09/28 01:07:41;;;;;;;15.00;10.43;;;15.00;99.90;;;;;;4943919;29;20230;-83
2023/09/28 01:10:09;;;;;;;14.23;9.35;;;14.90;99.90;;;;;;4944376;29;20201;-82
2023/09/28 01:12:38;;;;;;;13.57;10.20;;;14.70;99.90;;;;;;4944312;29;20262;-83
2023/09/28 01:15:09;;;;;;;11.95;9.05;;;14.80;99.90;;;;;;4944679;29;20242;-82
2023/09/28 01:17:36;;;;;;;12.90;9.23;;;14.90;99.90;;;;;;4944389;29;20230;-81
2023/09/28 01:20:03;;;;;;;15.40;9.15;;;14.90;99.90;;;;;;4943939;29;20274;-83
2023/09/28 01:22:32;;;;;;;15.95;9.55;;;14.90;99.90;;;;;;4944634;29;20238;-80
2023/09/28 01:24:57;;;;;;;11.48;8.25;;;14.90;99.90;;;;;;4943801;29;20246;-82
2023/09/28 01:27:24;;;;;;;14.00;8.38;;;14.70;99.90;;;;;;4944339;29;20223;-83
2023/09/28 01:29:50;;;;;;;13.50;9.43;;;14.70;99.90;;;;;;4943910;29;20577;-82
2023/09/28 01:32:17;;;;;;;15.30;9.82;;;14.80;99.90;;;;;;4944481;29;20202;-81
2023/09/28 01:34:42;;;;;;;13.85;9.15;;;14.70;99.90;;;;;;4944295;29;20203;-81
2023/09/28 01:37:09;;;;;;;13.25;9.00;;;14.70;99.90;;;;;;4943400;29;20207;-82
2023/09/28 01:39:38;;;;;;;15.45;9.50;;;14.60;99.90;;;;;;4944462;29;20691;-82
2023/09/28 01:42:05;;;;;;;13.93;8.88;;;14.50;99.90;;;;;;4944098;29;20231;-83
2023/09/28 01:44:31;;;;;;;12.38;8.68;;;14.50;99.90;;;;;;4944338;29;20298;-82
2023/09/28 01:46:58;;;;;;;11.25;8.15;;;14.60;99.90;;;;;;4944868;29;20688;-81
2023/09/28 01:49:23;;;;;;;11.05;8.35;;;14.50;99.90;;;;;;4944747;29;20227;-82
2023/09/28 01:51:50;;;;;;;12.35;8.70;;;14.50;99.90;;;;;;4943726;29;20210;-81
2023/09/28 01:54:16;;;;;;;14.38;8.52;;;14.50;99.90;;;;;;4943299;29;20564;-83
2023/09/28 01:56:44;;;;;;;13.38;9.40;;;14.60;99.90;;;;;;4943818;29;20210;-82
2023/09/28 01:59:10;;;;;;;13.38;9.25;;;14.70;99.90;;;;;;4943749;29;20739;-81
2023/09/28 02:01:37;;;;;;;14.30;8.85;;;14.80;99.90;;;;;;4944186;29;20679;-82
2023/09/28 02:04:04;;;;;;;14.88;9.05;;;14.90;99.90;;;;;;4943691;29;20302;-81
2023/09/28 02:06:31;;;;;;;13.23;8.70;;;15.10;99.90;;;;;;4944031;29;20206;-81
2023/09/28 02:08:57;;;;;;;15.20;8.93;;;15.30;99.90;;;;;;4943982;29;20233;-83
2023/09/28 02:11:24;;;;;;;14.48;8.52;;;15.30;99.90;;;;;;4944081;29;20664;-80
2023/09/28 02:13:51;;;;;;;13.38;8.90;;;15.40;99.90;;;;;;4944771;29;20628;-84
2023/09/28 02:16:17;;;;;;;12.82;8.35;;;15.80;99.90;;;;;;4943433;29;20214;-81
2023/09/28 02:18:43;;;;;;;15.43;8.90;;;16.10;99.90;;;;;;4943432;29;20229;-82
2023/09/28 02:21:16;;;;;;;13.70;8.65;;;16.80;99.90;;;;;;4943816;29;20645;-81
2023/09/28 02:23:42;;;;;;;13.00;7.93;;;16.80;99.90;;;;;;4944313;29;20694;-81
2023/09/28 02:26:09;;;;;;;10.60;8.55;;;16.90;99.90;;;;;;4944464;29;20254;-83
2023/09/28 02:28:35;;;;;;;11.82;8.23;;;16.50;99.90;;;;;;4944679;29;20230;-81
2023/09/28 02:31:09;;;;;;;10.57;8.23;;;16.10;99.90;;;;;;4944672;29;20233;-82
2023/09/28 02:33:35;;;;;;;12.48;8.02;;;15.60;99.90;;;;;;4943906;29;20203;-81
2023/09/28 02:36:02;;;;;;;11.65;8.60;;;15.30;99.90;;;;;;4943975;29;20298;-82
2023/09/28 02:38:29;;;;;;;14.93;9.55;;;15.20;99.90;;;;;;4943409;29;20235;-83
2023/09/28 02:40:55;;;;;;;12.60;9.07;;;14.90;99.90;;;;;;4943593;29;20199;-82
2023/09/28 02:43:21;;;;;;;10.68;8.65;;;14.90;99.90;;;;;;4943721;29;20592;-80
2023/09/28 02:45:48;;;;;;;13.48;9.27;;;15.00;99.90;;;;;;4943536;29;20211;-83
2023/09/28 02:48:16;;;;;;;11.38;8.73;;;15.00;99.90;;;;;;4942972;29;20312;-81
2023/09/28 02:50:43;;;;;;;14.18;9.15;;;15.10;99.90;;;;;;4943381;29;20607;-82
2023/09/28 02:53:09;;;;;;;14.80;9.00;;;15.00;99.90;;;;;;4942219;29;20277;-81
2023/09/28 02:55:36;;;;;;;12.70;8.98;;;15.20;99.90;;;;;;4941813;29;20207;-80
2023/09/28 02:58:03;;;;;;;18.75;9.73;;;15.20;99.90;;;;;;4941142;29;20282;-82
2023/09/28 03:00:32;;;;;;;13.05;9.50;;;15.40;99.90;;;;;;4941566;29;20198;-82
2023/09/28 03:03:00;;;;;;;13.20;9.07;;;15.30;99.90;;;;;;4941647;29;20243;-81
2023/09/28 03:05:29;;;;;;;14.45;10.05;;;15.20;99.90;;;;;;4941734;29;20297;-81
2023/09/28 03:07:57;;;;;;;13.95;9.07;;;15.30;99.90;;;;;;4940518;29;20321;-82
2023/09/28 03:10:24;;;;;;;12.25;9.20;;;15.30;99.90;;;;;;4939723;29;20667;-81
2023/09/28 03:12:51;;;;;;;18.58;11.65;;;15.20;99.90;;;;;;4940203;29;20211;-82
2023/09/28 03:15:19;;;;;;;20.88;13.48;;;15.30;99.90;;;;;;4940534;29;20203;-82
2023/09/28 03:17:47;;;;;;;16.58;11.05;;;15.40;99.90;;;;;;4940055;29;20626;-81
2023/09/28 03:20:14;;;;;;;13.77;9.57;;;15.40;99.90;;;;;;4943234;29;20234;-80
2023/09/28 03:22:43;;;;;;;15.20;9.38;;;15.40;99.90;;;;;;4945105;29;20227;-81
2023/09/28 03:25:16;;;;;;;14.93;10.05;;;15.30;99.90;;;;;;4939925;29;20206;-81
2023/09/28 03:27:43;;;;;;;12.45;8.73;;;15.10;99.90;;;;;;4940727;29;20219;-82
2023/09/28 03:30:10;;;;;;;13.10;9.70;;;15.00;99.90;;;;;;4941280;29;20217;-83
2023/09/28 03:32:38;;;;;;;11.95;8.82;;;14.80;99.90;;;;;;4941192;29;20205;-81
2023/09/28 03:35:05;;;;;;;16.52;9.82;;;14.70;99.90;;;;;;4940390;29;20301;-81
2023/09/28 03:37:31;;;;;;;27.75;22.38;;;14.80;99.90;;;;;;4940142;29;20231;-82
2023/09/28 03:40:00;;;;;;;18.73;12.18;;;14.90;99.90;;;;;;4940392;29;20662;-81
2023/09/28 03:42:28;;;;;;;15.95;10.52;;;14.90;99.90;;;;;;4940340;29;20231;-82
2023/09/28 03:44:55;;;;;;;15.70;9.65;;;14.90;99.90;;;;;;4940869;29;20211;-81
2023/09/28 03:47:21;;;;;;;16.10;9.10;;;14.90;99.90;;;;;;4940580;29;20199;-82
2023/09/28 03:49:48;;;;;;;14.38;8.80;;;14.80;99.90;;;;;;4941993;29;20209;-81
2023/09/28 03:52:15;;;;;;;14.43;9.90;;;14.80;99.90;;;;;;4940206;29;20202;-82
2023/09/28 03:54:42;;;;;;;11.98;9.52;;;15.00;99.90;;;;;;4941794;29;20297;-83
2023/09/28 03:57:10;;;;;;;11.30;8.70;;;15.10;99.90;;;;;;4941385;29;20206;-80
2023/09/28 03:59:37;;;;;;;11.10;8.52;;;15.00;99.90;;;;;;4942797;29;20225;-81
2023/09/28 04:02:04;;;;;;;11.93;8.88;;;15.00;99.90;;;;;;4941513;29;20667;-81
2023/09/28 04:04:31;;;;;;;11.75;8.57;;;15.00;99.90;;;;;;4940334;29;20299;-81
2023/09/28 04:06:58;;;;;;;11.50;8.60;;;15.00;99.90;;;;;;4941946;29;20203;-81
2023/09/28 04:09:25;;;;;;;12.15;8.27;;;14.90;99.90;;;;;;4940972;29;20269;-81
2023/09/28 04:11:51;;;;;;;10.98;8.52;;;15.00;99.90;;;;;;4940301;29;20302;-82
2023/09/28 04:14:20;;;;;;;11.73;9.07;;;15.10;99.90;;;;;;4940478;29;20211;-80
2023/09/28 04:16:46;;;;;;;11.85;9.02;;;15.20;99.90;;;;;;4940660;29;20215;-81
2023/09/28 04:19:13;;;;;;;11.27;9.32;;;15.30;99.90;;;;;;4940144;29;20326;-82
2023/09/28 04:21:40;;;;;;;14.88;9.57;;;15.30;99.90;;;;;;4940962;29;20202;-82
2023/09/28 04:24:08;;;;;;;15.88;9.32;;;15.30;99.90;;;;;;4939237;29;20270;-83
2023/09/28 04:26:35;;;;;;;10.65;8.93;;;15.40;99.90;;;;;;4940949;29;20297;-82
2023/09/28 04:29:02;;;;;;;14.48;8.32;;;15.40;99.90;;;;;;4939688;29;20313;-81
2023/09/28 04:31:30;;;;;;;11.50;8.32;;;15.50;99.90;;;;;;4939335;29;20302;-82
2023/09/28 04:33:58;;;;;;;11.25;7.97;;;15.40;99.90;;;;;;4939126;29;20207;-82
2023/09/28 04:36:25;;;;;;;41.17;29.98;;;15.40;99.90;;;;;;4938682;29;20214;-82
2023/09/28 04:38:52;;;;;;;18.63;13.07;;;15.40;99.90;;;;;;4938495;29;20673;-82
2023/09/28 04:41:18;;;;;;;13.32;8.55;;;15.30;99.90;;;;;;4938714;29;20206;-80
2023/09/28 04:43:45;;;;;;;11.75;8.38;;;15.40;99.90;;;;;;4940236;29;20233;-82
2023/09/28 04:46:12;;;;;;;11.60;8.35;;;15.40;99.90;;;;;;4938766;29;20286;-82
2023/09/28 04:48:40;;;;;;;12.73;8.77;;;15.40;99.90;;;;;;4939473;29;20227;-82
2023/09/28 04:51:07;;;;;;;11.98;9.00;;;15.60;99.90;;;;;;4940345;29;20211;-82
2023/09/28 04:53:34;;;;;;;13.70;8.70;;;15.40;99.90;;;;;;4939843;29;20333;-82
2023/09/28 04:56:09;;;;;;;10.10;8.18;;;15.40;99.90;;;;;;4935162;29;20585;-82
2023/09/28 04:58:36;;;;;;;11.07;8.00;;;15.40;99.90;;;;;;4940887;29;20226;-82
2023/09/28 05:01:03;;;;;;;13.02;9.13;;;15.40;99.90;;;;;;4938149;29;20241;-82
2023/09/28 05:03:30;;;;;;;14.40;8.88;;;15.40;99.90;;;;;;4928248;29;20228;-82
2023/09/28 05:05:58;;;;;;;13.32;8.30;;;15.40;99.90;;;;;;4937691;29;20207;-83
2023/09/28 05:08:25;;;;;;;12.50;8.65;;;15.60;99.90;;;;;;4925525;29;20232;-84
2023/09/28 05:10:52;;;;;;;14.55;8.82;;;15.60;99.90;;;;;;4918752;29;20277;-83
2023/09/28 05:13:19;;;;;;;11.68;7.53;;;15.70;99.90;;;;;;4920021;29;20208;-82
2023/09/28 05:15:46;;;;;;;12.23;8.85;;;15.70;99.90;;;;;;4926251;29;20211;-82
2023/09/28 05:18:13;;;;;;;10.90;8.52;;;15.70;99.90;;;;;;4937598;29;20227;-82
2023/09/28 05:20:40;;;;;;;17.08;10.27;;;15.70;99.90;;;;;;4938687;29;20203;-83
2023/09/28 05:23:09;;;;;;;24.67;16.42;;;15.90;99.90;;;;;;4940394;29;20274;-83
2023/09/28 05:25:36;;;;;;;22.45;15.40;;;15.90;99.90;;;;;;4940826;29;20211;-84
2023/09/28 05:28:03;;;;;;;12.55;9.98;;;16.00;99.90;;;;;;4940534;29;20229;-82
2023/09/28 05:30:30;;;;;;;11.20;9.10;;;15.90;99.90;;;;;;4941194;29;20263;-83
2023/09/28 05:32:57;;;;;;;12.85;8.63;;;16.00;99.90;;;;;;4939579;29;20203;-82
2023/09/28 05:35:24;;;;;;;12.63;8.55;;;16.00;99.90;;;;;;4942064;29;20214;-82
2023/09/28 05:37:51;;;;;;;11.45;9.02;;;15.90;99.90;;;;;;4942604;29;20329;-82
2023/09/28 05:40:20;;;;;;;11.05;7.75;;;16.20;99.90;;;;;;4943362;29;20243;-83
2023/09/28 05:42:48;;;;;;;10.88;8.85;;;16.00;99.90;;;;;;4944225;29;20250;-82
2023/09/28 05:45:15;;;;;;;13.57;9.02;;;15.90;99.90;;;;;;4942475;28;20203;-83
2023/09/28 05:47:42;;;;;;;13.25;8.98;;;16.00;99.90;;;;;;4942321;29;20223;-84
2023/09/28 05:50:10;;;;;;;11.25;8.00;;;16.00;99.90;;;;;;4941954;29;20207;-82
2023/09/28 05:52:38;;;;;;;12.00;7.85;;;16.10;99.90;;;;;;4941326;29;20301;-82
2023/09/28 05:55:05;;;;;;;10.07;7.93;;;16.20;99.90;;;;;;4942214;29;20213;-82
2023/09/28 05:57:33;;;;;;;10.70;8.30;;;16.20;99.90;;;;;;4942409;29;20255;-82
2023/09/28 06:00:00;;;;;;;10.38;7.55;;;16.30;99.90;;;;;;4943341;29;20599;-82
2023/09/28 06:02:27;;;;;;;13.93;8.18;;;16.40;99.90;;;;;;4942805;29;20577;-83
2023/09/28 06:04:53;;;;;;;10.30;7.70;;;16.30;99.90;;;;;;4941615;29;20718;-82
2023/09/28 06:07:23;;;;;;;10.20;8.32;;;16.30;99.90;;;;;;4942454;29;20211;-82
2023/09/28 06:09:50;;;;;;;11.65;7.82;;;16.40;99.90;;;;;;4944383;29;20604;-82
2023/09/28 06:12:17;;;;;;;11.40;7.93;;;16.40;99.90;;;;;;4943166;29;20744;-82
2023/09/28 06:14:45;;;;;;;11.20;8.02;;;16.50;99.90;;;;;;4942671;29;20206;-82
2023/09/28 06:17:12;;;;;;;13.27;7.70;;;16.60;99.90;;;;;;4943202;29;20203;-83
2023/09/28 06:19:39;;;;;;;24.10;17.90;;;16.70;99.90;;;;;;4943217;29;20241;-83
2023/09/28 06:22:09;;;;;;;15.48;10.90;;;16.80;99.90;;;;;;4942408;29;20207;-82
2023/09/28 06:24:37;;;;;;;11.57;7.75;;;16.70;99.90;;;;;;4943071;29;20207;-82
2023/09/28 06:27:05;;;;;;;9.40;7.00;;;16.90;99.90;;;;;;4942917;29;20734;-83
2023/09/28 06:29:32;;;;;;;10.25;7.03;;;16.90;99.90;;;;;;4942606;29;20605;-81
2023/09/28 06:32:00;;;;;;;9.95;7.43;;;17.00;99.90;;;;;;4941746;29;20215;-82
2023/09/28 06:34:27;;;;;;;11.52;6.93;;;17.10;99.90;;;;;;4941109;29;20238;-83
2023/09/28 06:36:54;;;;;;;11.43;7.15;;;17.30;99.90;;;;;;4942241;29;20199;-82
2023/09/28 06:39:21;;;;;;;8.68;6.50;;;17.50;99.90;;;;;;4935855;29;20239;-82
2023/09/28 06:41:48;;;;;;;8.98;7.00;;;17.40;99.90;;;;;;4922072;29;20203;-85
2023/09/28 06:44:15;;;;;;;8.57;6.95;;;17.40;99.90;;;;;;4937321;29;20219;-81
2023/09/28 06:46:44;;;;;;;11.10;7.13;;;17.60;99.90;;;;;;4941627;29;20211;-82
2023/09/28 06:49:13;;;;;;;10.20;6.88;;;17.60;99.90;;;;;;4941393;29;20682;-83
2023/09/28 06:51:39;;;;;;;10.70;7.00;;;17.60;99.90;;;;;;4940235;29;20269;-83
2023/09/28 06:54:08;;;;;;;8.13;6.68;;;17.60;99.90;;;;;;4941115;29;20290;-83
2023/09/28 06:56:36;;;;;;;12.15;6.80;;;17.60;99.90;;;;;;4940463;29;20222;-81
2023/09/28 06:59:03;;;;;;;9.07;6.22;;;17.60;99.90;;;;;;4940772;29;20262;-82
2023/09/28 07:01:30;;;;;;;14.32;8.82;;;17.70;99.90;;;;;;4940217;29;20217;-82
2023/09/28 07:03:57;;;;;;;9.68;6.55;;;17.80;99.90;;;;;;4939649;29;20495;-82
2023/09/28 07:06:25;;;;;;;8.82;6.63;;;17.80;99.90;;;;;;4939980;29;20243;-82
2023/09/28 07:08:52;;;;;;;8.60;6.57;;;17.80;99.90;;;;;;4940601;29;20235;-82
2023/09/28 07:11:20;;;;;;;10.25;7.15;;;17.80;99.90;;;;;;4938976;29;20210;-83
2023/09/28 07:13:47;;;;;;;10.55;6.68;;;17.70;99.90;;;;;;4939119;29;20203;-82
2023/09/28 07:16:13;;;;;;;13.35;6.40;;;17.70;99.90;;;;;;4939564;29;20695;-82
2023/09/28 07:18:40;;;;;;;8.85;6.20;;;17.70;99.90;;;;;;4940563;29;20231;-82
2023/09/28 07:21:08;;;;;;;10.35;6.07;;;17.80;99.90;;;;;;4940475;29;20301;-82
2023/09/28 07:23:37;;;;;;;8.30;6.90;;;17.80;99.90;;;;;;4939783;29;20230;-83
2023/09/28 07:26:12;;;;;;;8.98;6.18;;;17.90;99.90;;;;;;4939707;29;20631;-83
2023/09/28 07:28:39;;;;;;;6.70;6.00;;;18.00;99.90;;;;;;4933128;29;20242;-82
2023/09/28 07:31:06;;;;;;;10.13;5.80;;;18.10;99.90;;;;;;4921213;29;20207;-82
2023/09/28 07:33:34;;;;;;;7.93;5.70;;;18.00;99.90;;;;;;4921073;29;20294;-82
2023/09/28 07:36:05;;;;;;;8.90;5.97;;;18.10;99.90;;;;;;4919693;29;20203;-82
2023/09/28 07:38:32;;;;;;;8.25;5.65;;;18.20;99.90;;;;;;4918959;29;20239;-82
2023/09/28 07:41:01;;;;;;;7.97;5.50;;;18.10;99.90;;;;;;4919922;29;20254;-82
2023/09/28 07:43:28;;;;;;;6.90;5.32;;;18.30;99.90;;;;;;4918891;29;20230;-82
2023/09/28 07:45:55;;;;;;;8.43;5.80;;;18.50;99.90;;;;;;4918928;29;20207;-82
2023/09/28 07:48:22;;;;;;;6.32;5.43;;;18.50;99.90;;;;;;4922468;29;20734;-82
2023/09/28 07:50:49;;;;;;;9.43;5.97;;;18.80;99.90;;;;;;4922314;29;20298;-82
2023/09/28 07:53:16;;;;;;;8.93;5.85;;;18.80;99.90;;;;;;4920969;29;20210;-81
2023/09/28 07:55:43;;;;;;;8.02;5.82;;;19.30;99.90;;;;;;4921158;29;20203;-82
2023/09/28 07:58:12;;;;;;;7.78;5.20;;;19.30;99.90;;;;;;4920692;29;20227;-82
2023/09/28 08:00:38;;;;;;;6.93;5.75;;;19.20;99.90;;;;;;4920169;29;20207;-82
2023/09/28 08:03:06;;;;;;;8.20;5.40;;;19.20;99.90;;;;;;4920783;29;20580;-83
2023/09/28 08:05:32;;;;;;;8.30;6.05;;;19.10;99.90;;;;;;4921313;29;20294;-82
2023/09/28 08:07:59;;;;;;;7.07;5.50;;;19.20;99.90;;;;;;4919935;29;20238;-82
2023/09/28 08:10:26;;;;;;;7.85;5.63;;;19.00;99.90;;;;;;4920436;29;20208;-82
2023/09/28 08:12:53;;;;;;;10.48;5.28;;;19.00;99.90;;;;;;4921327;29;20641;-82
2023/09/28 08:15:22;;;;;;;6.78;5.78;;;18.90;99.90;;;;;;4919519;29;20217;-82
2023/09/28 08:17:48;;;;;;;9.38;5.70;;;19.00;99.90;;;;;;4919416;29;20254;-83
2023/09/28 08:20:16;;;;;;;10.50;5.70;;;19.10;99.90;;;;;;4920434;29;20216;-82
2023/09/28 08:22:43;;;;;;;7.43;5.97;;;19.20;99.90;;;;;;4920253;29;20660;-82
2023/09/28 08:25:10;;;;;;;10.65;5.82;;;19.30;99.90;;;;;;4919004;29;20725;-83
2023/09/28 08:27:37;;;;;;;8.77;6.38;;;19.40;99.90;;;;;;4919706;29;20249;-82
2023/09/28 08:30:05;;;;;;;6.85;5.57;;;19.60;99.90;;;;;;4919001;29;20327;-82
2023/09/28 08:32:33;;;;;;;8.07;5.88;;;19.50;99.90;;;;;;4919350;29;20214;-82
2023/09/28 08:35:00;;;;;;;8.45;6.15;;;19.60;99.90;;;;;;4919364;29;20231;-82
2023/09/28 08:37:28;;;;;;;9.05;6.30;;;19.70;99.90;;;;;;4920562;29;20235;-82
2023/09/28 08:39:57;;;;;;;10.75;6.22;;;19.80;99.90;;;;;;4917854;29;20214;-82
2023/09/28 08:42:26;;;;;;;10.25;6.82;;;19.90;99.90;;;;;;4917519;29;20204;-82
2023/09/28 08:44:59;;;;;;;10.98;6.85;;;20.00;99.90;;;;;;4918071;29;20227;-83
2023/09/28 08:47:27;;;;;;;13.07;7.43;;;20.10;99.90;;;;;;4917062;29;20766;-82
2023/09/28 08:49:56;;;;;;;11.70;7.38;;;20.20;99.90;;;;;;4917456;29;20214;-82
2023/09/28 08:52:27;;;;;;;10.43;6.88;;;20.40;99.90;;;;;;4929933;29;20651;-83
2023/09/28 08:54:54;;;;;;;12.73;7.63;;;20.40;99.90;;;;;;4936318;29;20199;-82
2023/09/28 08:57:21;;;;;;;12.13;6.97;;;20.50;99.90;;;;;;4938026;29;20567;-83
2023/09/28 08:59:51;;;;;;;8.15;6.25;;;20.70;99.90;;;;;;4939373;29;20207;-82
2023/09/28 09:02:19;;;;;;;8.13;6.28;;;20.60;99.90;;;;;;4938723;29;20209;-82
2023/09/28 09:04:45;;;;;;;8.38;6.18;;;20.70;99.90;;;;;;4937307;29;20722;-82
2023/09/28 09:07:14;;;;;;;8.40;6.28;;;20.80;99.90;;;;;;4936622;29;20644;-82
2023/09/28 09:09:41;;;;;;;11.13;7.18;;;21.20;99.90;;;;;;4953579;28;20210;-81
2023/09/28 09:12:10;;;;;;;10.20;6.60;;;21.30;99.90;;;;;;4958602;29;20237;-83
2023/09/28 09:14:37;;;;;;;9.65;6.55;;;21.50;99.90;;;;;;4945895;29;20206;-82
2023/09/28 09:17:04;;;;;;;9.88;5.68;;;21.80;99.90;;;;;;4941496;29;20609;-82
2023/09/28 09:19:32;;;;;;;11.43;5.47;;;22.00;99.90;;;;;;4941296;29;20213;-82
2023/09/28 09:21:59;;;;;;;8.45;5.60;;;22.30;99.90;;;;;;4942836;29;20207;-83
2023/09/28 09:24:27;;;;;;;5.57;4.88;;;22.60;99.90;;;;;;4942563;29;20233;-82
2023/09/28 09:26:55;;;;;;;9.63;5.40;;;22.70;99.90;;;;;;4942319;29;20673;-82
2023/09/28 09:29:23;;;;;;;7.28;4.50;;;22.90;99.90;;;;;;4941978;29;20227;-82
2023/09/28 09:31:50;;;;;;;9.65;4.53;;;23.00;99.90;;;;;;4941573;29;20214;-82
2023/09/28 09:34:18;;;;;;;5.80;4.35;;;23.20;99.90;;;;;;4941282;29;20243;-82
2023/09/28 09:36:52;;;;;;;7.28;4.78;;;23.10;99.90;;;;;;4941475;29;20587;-82
2023/09/28 09:39:23;;;;;;;7.68;4.45;;;23.10;99.90;;;;;;4941244;29;20282;-82
2023/09/28 09:41:52;;;;;;;5.47;4.53;;;23.50;99.90;;;;;;4940773;29;20267;-83
2023/09/28 09:44:20;;;;;;;7.60;5.05;;;23.40;99.90;;;;;;4940344;29;20234;-82
2023/09/28 09:46:48;;;;;;;7.22;5.05;;;23.50;99.90;;;;;;4940044;29;20232;-83
2023/09/28 09:49:16;;;;;;;5.70;4.20;;;23.70;99.90;;;;;;4940440;29;20235;-82
2023/09/28 09:51:45;;;;;;;6.07;4.13;;;24.10;99.90;;;;;;4940234;29;20621;-83
2023/09/28 09:54:13;;;;;;;8.52;4.25;;;23.70;99.90;;;;;;4940545;29;20737;-83
2023/09/28 09:56:43;;;;;;;7.93;4.90;;;24.30;99.90;;;;;;4940101;29;20818;-83
2023/09/28 09:59:13;;;;;;;4.85;4.10;;;24.20;99.90;;;;;;4941761;29;20738;-83
2023/09/28 10:01:46;;;;;;;7.07;4.18;;;24.20;99.90;;;;;;4940524;29;20218;-83
2023/09/28 10:04:16;;;;;;;6.32;4.43;;;24.30;99.90;;;;;;4940317;29;20278;-82
2023/09/28 10:06:45;;;;;;;6.88;4.00;;;24.50;99.90;;;;;;4940286;29;20199;-83
2023/09/28 10:09:14;;;;;;;6.47;4.35;;;24.50;99.90;;;;;;4939426;29;20227;-82
2023/09/28 10:11:41;;;;;;;7.03;4.65;;;24.70;99.90;;;;;;4939625;29;20207;-83
2023/09/28 10:14:09;;;;;;;7.88;4.57;;;24.80;99.90;;;;;;4939667;29;20205;-83
2023/09/28 10:16:38;;;;;;;6.13;4.70;;;24.70;99.90;;;;;;4940744;29;20246;-82
2023/09/28 10:19:06;;;;;;;7.05;5.10;;;25.00;99.90;;;;;;4940041;29;20588;-82
2023/09/28 10:21:37;;;;;;;6.88;4.88;;;24.90;99.90;;;;;;4939818;29;20582;-83
2023/09/28 10:24:11;;;;;;;5.53;4.40;;;25.30;99.90;;;;;;4939802;29;20688;-82
2023/09/28 10:26:39;;;;;;;7.70;4.60;;;25.20;99.90;;;;;;4939910;29;20210;-83
2023/09/28 10:29:07;;;;;;;5.10;4.38;;;25.30;99.90;;;;;;4940078;29;20223;-83
2023/09/28 10:31:36;;;;;;;7.90;4.32;;;25.40;99.90;;;;;;4939797;29;20195;-82
2023/09/28 10:34:05;;;;;;;4.85;4.35;;;25.30;99.90;;;;;;4939245;29;20207;-82
2023/09/28 10:36:33;;;;;;;7.35;4.35;;;25.20;99.90;;;;;;4939174;29;20222;-83
2023/09/28 10:39:10;;;;;;;4.60;4.07;;;25.30;99.90;;;;;;4939663;29;20245;-83
2023/09/28 10:41:38;;;;;;;8.13;4.40;;;25.50;99.90;;;;;;4939696;29;20628;-82
2023/09/28 10:44:13;;;;;;;4.85;4.07;;;25.30;99.90;;;;;;4938765;29;20206;-83
2023/09/28 10:46:40;;;;;;;6.95;4.75;;;25.60;99.90;;;;;;4938567;29;20245;-82
2023/09/28 10:49:10;;;;;;;7.00;4.53;;;25.50;99.90;;;;;;4938907;29;20229;-82
2023/09/28 10:51:37;;;;;;;6.07;3.75;;;26.00;99.90;;;;;;4939015;29;20206;-82
2023/09/28 10:54:06;;;;;;;5.50;4.38;;;26.00;99.90;;;;;;4940982;29;20278;-82
2023/09/28 10:56:32;;;;;;;6.30;3.95;;;25.90;99.90;;;;;;4941200;29;20210;-82
2023/09/28 10:59:02;;;;;;;7.50;4.10;;;25.70;99.90;;;;;;4941561;29;20227;-82
2023/09/28 11:01:29;;;;;;;7.05;3.88;;;25.60;99.90;;;;;;4941327;29;20199;-83
2023/09/28 11:03:56;;;;;;;6.68;4.78;;;25.90;99.90;;;;;;4941092;29;20203;-83
2023/09/28 11:06:24;;;;;;;8.68;4.47;;;25.90;99.90;;;;;;4941183;29;20599;-83
2023/09/28 11:08:51;;;;;;;8.68;4.20;;;26.00;99.90;;;;;;4940310;29;20226;-83
2023/09/28 11:11:21;;;;;;;5.68;3.95;;;26.30;99.90;;;;;;4940838;29;20207;-82
2023/09/28 11:13:48;;;;;;;6.75;4.60;;;26.10;99.90;;;;;;4941821;29;20197;-83
2023/09/28 11:16:17;;;;;;;8.07;4.60;;;26.60;99.90;;;;;;4941760;29;20203;-82
2023/09/28 11:18:44;;;;;;;5.25;4.20;;;26.00;99.90;;;;;;4942985;29;20226;-82
2023/09/28 11:21:12;;;;;;;6.10;4.35;;;26.20;99.90;;;;;;4943025;29;20209;-84
2023/09/28 11:23:41;;;;;;;11.00;4.85;;;26.50;99.90;;;;;;4943510;29;20203;-82
2023/09/28 11:26:10;;;;;;;4.75;4.07;;;26.60;99.90;;;;;;4943600;29;20223;-83
2023/09/28 11:28:37;;;;;;;5.55;4.28;;;26.50;99.90;;;;;;4942817;29;20722;-82
2023/09/28 11:31:09;;;;;;;4.53;3.88;;;26.40;99.90;;;;;;4943006;29;20203;-82
2023/09/28 11:33:36;;;;;;;8.43;4.97;;;26.50;99.90;;;;;;4942416;29;20210;-81
2023/09/28 11:36:04;;;;;;;8.82;4.85;;;26.40;99.90;;;;;;4941496;29;20207;-82
2023/09/28 11:38:31;;;;;;;6.03;4.68;;;26.60;99.90;;;;;;4942617;29;20286;-81
2023/09/28 11:40:59;;;;;;;5.90;4.50;;;26.40;99.90;;;;;;4942410;29;20726;-81
2023/09/28 11:43:26;;;;;;;7.13;5.05;;;26.50;99.90;;;;;;4940492;29;20217;-81
2023/09/28 11:45:53;;;;;;;9.95;5.80;;;26.70;99.90;;;;;;4940804;29;20227;-81
2023/09/28 11:48:21;;;;;;;6.65;4.60;;;26.60;99.90;;;;;;4939268;29;20778;-81
2023/09/28 11:50:48;;;;;;;6.07;4.68;;;26.50;99.90;;;;;;4939748;29;20301;-82
2023/09/28 11:53:15;;;;;;;5.07;4.45;;;26.50;99.90;;;;;;4941569;29;20203;-82
2023/09/28 11:55:45;;;;;;;8.57;4.80;;;26.60;99.90;;;;;;4939817;29;20219;-79
2023/09/28 11:58:20;;;;;;;6.82;4.90;;;26.90;99.90;;;;;;4939089;29;20230;-82
2023/09/28 12:00:47;;;;;;;5.20;4.43;;;26.70;99.90;;;;;;4924826;29;20210;-81
2023/09/28 12:03:14;;;;;;;7.75;4.80;;;26.80;99.90;;;;;;4933562;29;20210;-81
2023/09/28 12:05:41;;;;;;;6.47;4.80;;;27.00;99.90;;;;;;4940965;29;20229;-80
2023/09/28 12:08:08;;;;;;;6.28;4.68;;;27.20;99.90;;;;;;4941748;29;20321;-81
2023/09/28 12:10:35;;;;;;;7.88;4.78;;;27.10;99.90;;;;;;4941422;29;20270;-81
2023/09/28 12:13:01;;;;;;;6.32;4.25;;;26.90;99.90;;;;;;4942377;29;20210;-81
2023/09/28 12:15:29;;;;;;;5.45;4.53;;;26.90;99.90;;;;;;4940637;29;20547;-80
2023/09/28 12:17:56;;;;;;;7.35;4.40;;;26.80;99.90;;;;;;4941999;29;20590;-81
2023/09/28 12:20:24;;;;;;;7.15;4.22;;;26.90;99.90;;;;;;4940981;29;20200;-81
2023/09/28 12:22:52;;;;;;;7.35;5.10;;;26.90;99.90;;;;;;4942480;29;20207;-81
2023/09/28 12:25:18;;;;;;;5.35;4.30;;;26.70;99.90;;;;;;4941338;29;20321;-80
2023/09/28 12:27:46;;;;;;;6.57;4.35;;;26.90;99.90;;;;;;4942168;29;20752;-81
2023/09/28 12:30:18;;;;;;;6.80;4.65;;;27.20;99.90;;;;;;4941549;29;20226;-79
2023/09/28 12:32:47;;;;;;;6.35;4.55;;;27.10;99.90;;;;;;4940568;29;20187;-81
2023/09/28 12:35:14;;;;;;;4.97;4.30;;;27.10;99.90;;;;;;4942798;29;20207;-81
2023/09/28 12:37:40;;;;;;;7.97;4.90;;;27.00;99.90;;;;;;4942915;29;20733;-81
2023/09/28 12:40:11;;;;;;;8.02;4.60;;;27.00;99.90;;;;;;4942314;29;20207;-80
2023/09/28 12:42:38;;;;;;;6.13;4.78;;;27.00;99.90;;;;;;4942395;29;20195;-80